Time;durP1;ratioP1;P1;durP2;ratioP2;P2;SDS_P1;SDS_P2;PMS_P1;PMS_P2;Temp;Humidity;BMP_temperature;BMP_pressure;BME280_temperature;BME280_humidity;BME280_pressure;Samples;Min_cycle;Max_cycle;Signal;HPM_P1;HPM_P2
2023/12/18 00:01:26;;;;;;;6.70;5.70;;;;;;;4.95;100.00;100827.14;86860;274;138610;-64
2023/12/18 00:03:29;;;;;;;7.00;6.30;;;;;;;4.94;100.00;100828.64;86936;274;24002;-65
2023/12/18 00:05:32;;;;;;;4.60;4.20;;;;;;;4.92;100.00;100829.16;87071;274;136582;-66
2023/12/18 00:07:34;;;;;;;5.60;5.10;;;;;;;4.90;100.00;100824.95;86967;281;22609;-64
2023/12/18 00:09:37;;;;;;;5.00;4.60;;;;;;;4.87;100.00;100821.98;86816;281;137921;-69
2023/12/18 00:11:39;;;;;;;4.50;4.10;;;;;;;4.86;100.00;100819.48;86906;281;25086;-65
2023/12/18 00:13:40;;;;;;;7.20;4.50;;;;;;;4.86;100.00;100814.92;86907;274;136904;-66
2023/12/18 00:15:43;;;;;;;6.20;5.60;;;;;;;4.78;100.00;100804.52;86937;274;22565;-65
2023/12/18 00:17:45;;;;;;;5.90;5.00;;;;;;;4.85;100.00;100816.86;87021;277;136616;-67
2023/12/18 00:19:48;;;;;;;5.90;5.00;;;;;;;4.84;100.00;100815.39;87334;269;25653;-64
2023/12/18 00:21:50;;;;;;;5.90;5.30;;;;;;;4.82;100.00;100814.67;86813;266;136428;-66
2023/12/18 00:23:52;;;;;;;6.40;5.60;;;;;;;4.78;100.00;100813.50;86801;271;22573;-68
2023/12/18 00:25:54;;;;;;;6.00;4.60;;;;;;;4.73;100.00;100810.96;86773;275;136353;-66
2023/12/18 00:27:56;;;;;;;4.90;4.40;;;;;;;4.69;100.00;100799.71;87024;274;22561;-66
2023/12/18 00:29:59;;;;;;;5.50;5.10;;;;;;;4.66;100.00;100791.70;87026;273;137470;-75
2023/12/18 00:32:01;;;;;;;6.60;5.30;;;;;;;4.67;100.00;100790.92;86981;273;22526;-66
2023/12/18 00:34:03;;;;;;;5.10;4.50;;;;;;;4.69;100.00;100789.34;87063;273;22570;-66
2023/12/18 00:36:07;;;;;;;5.00;4.00;;;;;;;4.70;100.00;100792.20;87103;271;138264;-65
2023/12/18 00:38:09;;;;;;;4.20;3.80;;;;;;;4.72;100.00;100786.98;87106;273;22558;-64
2023/12/18 00:40:12;;;;;;;4.60;3.90;;;;;;;4.70;100.00;100786.03;86871;269;137033;-70
2023/12/18 00:42:13;;;;;;;5.90;5.40;;;;;;;4.70;100.00;100779.75;87018;277;22574;-67
2023/12/18 00:44:15;;;;;;;5.60;5.10;;;;;;;4.71;100.00;100781.42;86890;281;136850;-68
2023/12/18 00:46:17;;;;;;;5.10;4.70;;;;;;;4.74;100.00;100776.16;87075;277;22577;-67
2023/12/18 00:48:19;;;;;;;5.30;4.80;;;;;;;4.76;100.00;100770.86;87007;281;137924;-65
2023/12/18 00:50:21;;;;;;;6.60;5.90;;;;;;;4.78;100.00;100768.75;87009;274;24129;-63
2023/12/18 00:52:24;;;;;;;7.40;6.60;;;;;;;4.78;100.00;100770.48;86897;273;136733;-68
2023/12/18 00:54:26;;;;;;;6.70;5.00;;;;;;;4.79;100.00;100769.91;87159;279;22581;-64
2023/12/18 00:56:30;;;;;;;4.90;4.50;;;;;;;4.79;100.00;100775.21;86971;271;136993;-64
2023/12/18 00:58:32;;;;;;;7.30;6.30;;;;;;;4.79;100.00;100771.34;87254;276;22552;-70
2023/12/18 01:00:34;;;;;;;5.90;5.30;;;;;;;4.77;100.00;100767.48;87144;279;138010;-64
2023/12/18 01:02:36;;;;;;;6.70;5.50;;;;;;;4.77;100.00;100764.81;87175;271;24157;-68
2023/12/18 01:04:38;;;;;;;6.00;5.40;;;;;;;4.78;100.00;100762.31;87263;279;137017;-65
2023/12/18 01:06:40;;;;;;;5.70;5.20;;;;;;;4.77;100.00;100764.29;87267;271;24122;-65
2023/12/18 01:08:43;;;;;;;7.70;6.80;;;;;;;4.75;100.00;100763.05;87254;278;137102;-63
2023/12/18 01:10:44;;;;;;;7.30;6.00;;;;;;;4.74;100.00;100758.20;87313;278;25294;-66
2023/12/18 01:12:46;;;;;;;5.90;5.20;;;;;;;4.74;100.00;100759.65;87116;268;136888;-68
2023/12/18 01:14:48;;;;;;;8.00;4.90;;;;;;;4.69;100.00;100745.50;87198;271;25230;-65
2023/12/18 01:16:52;;;;;;;6.30;5.20;;;;;;;4.74;100.00;100741.63;87093;279;136902;-66
2023/12/18 01:18:55;;;;;;;7.70;5.40;;;;;;;4.73;100.00;100736.30;87342;278;23802;-65
2023/12/18 01:20:57;;;;;;;6.00;5.50;;;;;;;4.72;100.00;100730.58;87149;267;136772;-67
2023/12/18 01:23:00;;;;;;;5.90;5.30;;;;;;;4.73;100.00;100732.81;87353;273;25164;-68
2023/12/18 01:25:06;;;;;;;4.90;4.50;;;;;;;4.74;100.00;100736.02;87218;271;136924;-66
2023/12/18 01:27:08;;;;;;;6.20;5.60;;;;;;;4.77;100.00;100732.92;87462;267;22584;-67
2023/12/18 01:29:10;;;;;;;5.50;5.00;;;;;;;4.81;100.00;100732.54;87140;279;136938;-64
2023/12/18 01:31:24;;;;;;;5.40;4.90;;;;;;;4.88;100.00;100728.41;87220;279;25185;-63
2023/12/18 01:33:26;;;;;;;6.10;5.60;;;;;;;4.93;100.00;100717.54;87224;279;138413;-64
2023/12/18 01:35:28;;;;;;;5.20;4.70;;;;;;;4.97;100.00;100719.30;87328;263;24119;-64
2023/12/18 01:37:31;;;;;;;6.70;4.70;;;;;;;4.98;100.00;100722.89;87258;275;137229;-61
2023/12/18 01:39:33;;;;;;;6.40;5.60;;;;;;;5.00;100.00;100718.30;87307;279;22585;-62
2023/12/18 01:41:35;;;;;;;5.50;4.90;;;;;;;5.01;100.00;100716.60;87245;275;137000;-66
2023/12/18 01:43:37;;;;;;;6.50;5.80;;;;;;;5.02;100.00;100714.62;87259;275;22575;-63
2023/12/18 01:45:39;;;;;;;5.40;4.90;;;;;;;4.99;100.00;100706.06;87133;279;137841;-64
2023/12/18 01:47:41;;;;;;;5.30;4.80;;;;;;;4.99;100.00;100698.19;87031;273;25118;-65
2023/12/18 01:49:45;;;;;;;6.40;5.10;;;;;;;5.00;100.00;100703.34;87137;272;137050;-63
2023/12/18 01:51:49;;;;;;;5.80;5.20;;;;;;;5.01;100.00;100699.52;87297;271;24071;-63
2023/12/18 01:53:54;;;;;;;6.90;6.10;;;;;;;5.04;100.00;100685.35;87162;279;138275;-64
2023/12/18 01:55:57;;;;;;;7.30;6.30;;;;;;;5.06;100.00;100676.02;87309;271;22573;-63
2023/12/18 01:58:01;;;;;;;7.00;5.70;;;;;;;5.07;100.00;100684.93;87164;268;136916;-63
2023/12/18 02:00:11;;;;;;;7.20;6.50;;;;;;;5.10;100.00;100681.70;87251;279;137276;-65
2023/12/18 02:02:13;;;;;;;7.50;6.10;;;;;;;5.13;100.00;100685.80;87326;271;22633;-67
2023/12/18 02:04:17;;;;;;;8.90;6.70;;;;;;;5.14;100.00;100679.32;87120;268;137278;-65
2023/12/18 02:06:21;;;;;;;9.90;7.20;;;;;;;5.17;100.00;100685.27;87259;279;24036;-68
2023/12/18 02:08:25;;;;;;;8.10;7.20;;;;;;;5.17;100.00;100691.17;87289;268;137273;-63
2023/12/18 02:10:28;;;;;;;8.30;7.50;;;;;;;5.14;100.00;100692.53;87268;279;22574;-63
2023/12/18 02:12:30;;;;;;;8.00;6.90;;;;;;;5.11;100.00;100698.63;87394;271;136216;-64
2023/12/18 02:14:32;;;;;;;8.40;6.30;;;;;;;5.08;100.00;100687.13;87270;279;24777;-63
2023/12/18 02:16:35;;;;;;;9.10;7.70;;;;;;;5.06;100.00;100683.99;87079;271;137230;-64
2023/12/18 02:18:45;;;;;;;9.50;8.00;;;;;;;5.05;100.00;100690.95;87139;271;22844;-64
2023/12/18 02:20:47;;;;;;;11.00;8.10;;;;;;;5.02;100.00;100682.07;87017;275;138144;-65
2023/12/18 02:22:51;;;;;;;10.20;8.00;;;;;;;4.99;100.00;100680.25;87147;271;22626;-72
2023/12/18 02:24:53;;;;;;;10.60;8.40;;;;;;;5.01;100.00;100682.85;86984;271;137269;-64
2023/12/18 02:26:58;;;;;;;9.10;8.20;;;;;;;4.99;100.00;100668.80;87149;272;24084;-65
2023/12/18 02:29:00;;;;;;;10.90;8.80;;;;;;;5.03;100.00;100675.96;87155;272;137117;-63
2023/12/18 02:31:03;;;;;;;12.90;9.50;;;;;;;5.03;100.00;100680.00;87101;264;24151;-62
2023/12/18 02:33:05;;;;;;;8.90;8.00;;;;;;;5.04;100.00;100675.85;87205;279;138661;-64
2023/12/18 02:35:08;;;;;;;11.20;8.90;;;;;;;5.06;100.00;100674.98;87276;275;24199;-74
2023/12/18 02:37:10;;;;;;;11.50;8.60;;;;;;;5.05;100.00;100677.05;87139;266;137249;-68
2023/12/18 02:39:13;;;;;;;12.60;9.30;;;;;;;5.03;100.00;100686.36;87161;268;24012;-64
2023/12/18 02:41:14;;;;;;;12.00;9.00;;;;;;;5.02;100.00;100689.95;87178;279;137216;-63
2023/12/18 02:43:16;;;;;;;12.30;10.10;;;;;;;4.91;100.00;100676.21;87387;271;21588;-64
2023/12/18 02:45:20;;;;;;;12.30;10.20;;;;;;;4.92;100.00;100694.03;87153;278;138829;-65
2023/12/18 02:47:22;;;;;;;11.70;9.50;;;;;;;4.98;100.00;100724.38;87455;270;25124;-65
2023/12/18 02:49:24;;;;;;;13.20;10.90;;;;;;;4.96;100.00;100727.20;87241;279;137225;-67
2023/12/18 02:51:26;;;;;;;13.50;10.70;;;;;;;4.94;100.00;100729.33;87292;275;22580;-63
2023/12/18 02:53:28;;;;;;;11.10;9.40;;;;;;;4.91;100.00;100732.77;87178;272;137542;-65
2023/12/18 02:55:30;;;;;;;14.80;10.60;;;;;;;4.89;100.00;100725.85;87506;271;22576;-64
2023/12/18 02:57:32;;;;;;;11.10;9.10;;;;;;;4.89;100.00;100720.92;87279;264;137730;-63
2023/12/18 02:59:34;;;;;;;15.00;10.20;;;;;;;4.87;100.00;100722.27;87346;271;23121;-64
2023/12/18 03:01:36;;;;;;;12.30;10.40;;;;;;;4.87;100.00;100715.81;87204;271;137061;-63
2023/12/18 03:03:38;;;;;;;12.30;10.20;;;;;;;4.90;100.00;100713.30;87293;271;22574;-62
2023/12/18 03:05:41;;;;;;;13.00;10.20;;;;;;;4.89;100.00;100714.04;87279;264;137167;-66
2023/12/18 03:07:43;;;;;;;12.80;10.50;;;;;;;4.86;100.00;100714.81;87211;275;22557;-64
2023/12/18 03:09:45;;;;;;;14.10;10.70;;;;;;;4.84;100.00;100712.77;87201;278;137705;-63
2023/12/18 03:11:50;;;;;;;12.40;9.70;;;;;;;4.85;100.00;100711.03;87304;271;24097;-65
2023/12/18 03:13:51;;;;;;;13.10;10.50;;;;;;;4.87;100.00;100708.39;87214;271;138842;-68
2023/12/18 03:15:56;;;;;;;12.80;11.00;;;;;;;4.88;100.00;100706.53;87335;271;24209;-63
2023/12/18 03:17:58;;;;;;;12.90;9.40;;;;;;;4.90;100.00;100706.27;87169;271;137473;-65
2023/12/18 03:20:00;;;;;;;11.00;9.80;;;;;;;4.89;100.00;100705.64;87187;271;25133;-65
2023/12/18 03:22:03;;;;;;;12.90;9.10;;;;;;;4.82;100.00;100700.75;87162;279;137064;-65
2023/12/18 03:24:05;;;;;;;11.10;9.30;;;;;;;4.90;100.00;100704.10;87248;275;137380;-64
2023/12/18 03:26:07;;;;;;;11.60;9.60;;;;;;;4.91;100.00;100701.91;87309;279;22579;-63
2023/12/18 03:28:10;;;;;;;10.50;9.40;;;;;;;4.92;100.00;100697.43;87240;271;137271;-69
2023/12/18 03:30:12;;;;;;;11.20;9.90;;;;;;;4.94;100.00;100690.06;87324;271;25092;-65
2023/12/18 03:32:15;;;;;;;12.70;9.40;;;;;;;4.95;100.00;100683.27;87202;272;137484;-63
2023/12/18 03:34:17;;;;;;;13.10;10.10;;;;;;;4.94;100.00;100686.11;87200;268;22556;-65
2023/12/18 03:36:19;;;;;;;10.70;8.70;;;;;;;4.92;100.00;100683.50;87269;271;137420;-64
2023/12/18 03:38:24;;;;;;;12.20;8.90;;;;;;;4.90;100.00;100674.88;87325;278;24026;-65
2023/12/18 03:40:26;;;;;;;;;;;;;;;4.89;100.00;100675.49;87153;271;138416;-64
2023/12/18 03:42:28;;;;;;;12.30;9.80;;;;;;;4.86;100.00;100667.14;87141;271;22559;-64
2023/12/18 03:44:30;;;;;;;10.70;8.40;;;;;;;4.88;100.00;100667.16;87113;271;138544;-65
2023/12/18 03:46:33;;;;;;;10.00;8.10;;;;;;;4.88;100.00;100664.14;87293;279;24049;-64
2023/12/18 03:48:35;;;;;;;14.00;8.90;;;;;;;4.88;100.00;100672.79;86962;271;137330;-64
2023/12/18 03:50:37;;;;;;;14.40;8.90;;;;;;;4.88;100.00;100672.39;87317;272;22574;-66
2023/12/18 03:52:39;;;;;;;12.60;9.20;;;;;;;4.93;100.00;100665.88;87198;271;137106;-62
2023/12/18 03:54:41;;;;;;;11.50;8.90;;;;;;;4.96;100.00;100656.88;87265;275;22561;-64
2023/12/18 03:56:43;;;;;;;12.40;8.00;;;;;;;4.97;100.00;100662.94;87233;278;137769;-65
2023/12/18 03:58:45;;;;;;;9.60;7.30;;;;;;;4.97;100.00;100654.71;87244;268;22541;-66
2023/12/18 04:00:48;;;;;;;9.50;8.50;;;;;;;4.98;100.00;100650.59;87140;268;137291;-65
2023/12/18 04:02:50;;;;;;;12.70;8.60;;;;;;;4.98;100.00;100641.91;87349;271;24087;-70
2023/12/18 04:04:52;;;;;;;11.20;8.90;;;;;;;4.99;100.00;100639.35;86963;279;137148;-62
2023/12/18 04:06:55;;;;;;;11.20;8.70;;;;;;;5.03;100.00;100642.86;87245;267;25132;-65
2023/12/18 04:08:57;;;;;;;11.70;8.80;;;;;;;5.06;100.00;100633.06;87235;271;137021;-64
2023/12/18 04:10:59;;;;;;;10.50;8.40;;;;;;;5.09;100.00;100636.64;87308;275;22579;-65
2023/12/18 04:13:02;;;;;;;15.50;10.70;;;;;;;5.11;100.00;100632.96;87117;271;138260;-64
2023/12/18 04:15:06;;;;;;;12.00;9.40;;;;;;;5.12;100.00;100637.10;87259;271;22575;-64
2023/12/18 04:17:08;;;;;;;11.30;9.00;;;;;;;5.13;100.00;100639.77;87302;267;137167;-62
2023/12/18 04:19:11;;;;;;;16.50;12.90;;;;;;;5.17;100.00;100639.61;87387;274;22561;-63
2023/12/18 04:21:13;;;;;;;14.60;11.90;;;;;;;5.19;100.00;100642.88;87251;263;137352;-79
2023/12/18 04:23:15;;;;;;;20.60;15.60;;;;;;;5.21;100.00;100644.36;87479;271;22597;-65
2023/12/18 04:25:17;;;;;;;23.70;16.20;;;;;;;5.17;100.00;100648.09;87294;271;137415;-65
2023/12/18 04:27:19;;;;;;;35.10;23.80;;;;;;;5.13;100.00;100654.79;87414;278;22698;-65
2023/12/18 04:29:21;;;;;;;35.50;25.20;;;;;;;5.11;100.00;100648.13;87125;275;138754;-65
2023/12/18 04:31:23;;;;;;;33.30;20.30;;;;;;;5.13;100.00;100645.91;87229;279;22583;-66
2023/12/18 04:33:25;;;;;;;23.80;17.60;;;;;;;5.14;100.00;100640.55;87230;275;138380;-63
2023/12/18 04:35:27;;;;;;;17.70;12.90;;;;;;;5.13;100.00;100632.59;87237;265;24059;-63
2023/12/18 04:37:29;;;;;;;14.40;12.30;;;;;;;5.13;100.00;100637.88;87182;278;138434;-64
2023/12/18 04:39:35;;;;;;;13.70;11.20;;;;;;;5.12;100.00;100633.50;87376;271;24062;-77
2023/12/18 04:41:37;;;;;;;14.40;10.10;;;;;;;5.12;100.00;100632.98;87247;273;136427;-66
2023/12/18 04:43:39;;;;;;;13.40;10.70;;;;;;;5.10;100.00;100628.79;87351;270;22847;-76
2023/12/18 04:45:42;;;;;;;16.20;11.90;;;;;;;5.09;100.00;100626.13;87234;278;137622;-66
2023/12/18 04:47:46;;;;;;;15.70;11.20;;;;;;;5.09;100.00;100626.41;87389;271;25315;-63
2023/12/18 04:49:48;;;;;;;11.90;9.90;;;;;;;5.10;100.00;100620.89;87296;271;137059;-65
2023/12/18 04:51:53;;;;;;;12.50;9.60;;;;;;;5.10;100.00;100622.62;87378;271;25124;-67
2023/12/18 04:53:56;;;;;;;12.30;10.20;;;;;;;5.11;100.00;100621.84;87195;271;136994;-65
2023/12/18 04:55:57;;;;;;;14.50;10.40;;;;;;;5.13;100.00;100622.52;87391;274;24150;-64
2023/12/18 04:58:00;;;;;;;13.50;9.40;;;;;;;5.15;100.00;100621.98;87316;267;138656;-63
2023/12/18 05:00:03;;;;;;;15.90;11.20;;;;;;;5.16;100.00;100623.15;87389;271;22574;-72
2023/12/18 05:02:05;;;;;;;14.00;10.50;;;;;;;5.15;100.00;100626.25;87196;270;25099;-65
2023/12/18 05:04:07;;;;;;;16.90;11.90;;;;;;;5.15;100.00;100623.38;87299;278;137346;-64
2023/12/18 05:06:19;;;;;;;14.50;11.80;;;;;;;5.17;100.00;100622.20;87229;274;25126;-73
2023/12/18 05:08:22;;;;;;;16.20;12.20;;;;;;;5.18;100.00;100619.58;87096;270;138297;-68
2023/12/18 05:10:24;;;;;;;15.90;11.80;;;;;;;5.17;100.00;100617.02;87327;274;21530;-67
2023/12/18 05:12:26;;;;;;;16.40;12.30;;;;;;;5.14;100.00;100609.39;87069;271;137952;-65
2023/12/18 05:14:28;;;;;;;14.00;11.50;;;;;;;5.13;100.00;100617.25;87255;271;26250;-66
2023/12/18 05:16:30;;;;;;;17.80;13.30;;;;;;;5.11;100.00;100622.89;86891;271;138815;-65
2023/12/18 05:18:32;;;;;;;16.30;12.20;;;;;;;5.02;100.00;100620.40;87183;274;24014;-67
2023/12/18 05:20:34;;;;;;;16.80;11.30;;;;;;;5.07;100.00;100633.09;87146;266;138577;-66
2023/12/18 05:22:36;;;;;;;15.90;12.00;;;;;;;5.07;100.00;100635.42;87347;271;22645;-78
2023/12/18 05:24:38;;;;;;;13.50;10.40;;;;;;;5.06;100.00;100639.23;87069;269;138098;-64
2023/12/18 05:26:40;;;;;;;18.50;13.40;;;;;;;5.01;100.00;100638.59;87318;270;22726;-65
2023/12/18 05:28:42;;;;;;;18.00;13.60;;;;;;;4.95;100.00;100637.31;87157;266;137287;-65
2023/12/18 05:30:44;;;;;;;17.30;13.90;;;;;;;4.90;100.00;100636.50;87325;274;23998;-66
2023/12/18 05:32:47;;;;;;;17.00;13.20;;;;;;;4.87;100.00;100641.83;87209;271;137263;-70
2023/12/18 05:34:49;;;;;;;17.90;13.50;;;;;;;4.83;100.00;100647.14;87323;271;24048;-65
2023/12/18 05:36:51;;;;;;;17.50;14.10;;;;;;;4.79;100.00;100642.08;87284;269;137406;-71
2023/12/18 05:38:53;;;;;;;19.10;14.00;;;;;;;4.75;100.00;100646.88;87331;266;22593;-65
2023/12/18 05:40:58;;;;;;;15.40;12.70;;;;;;;4.71;100.00;100643.02;87315;271;138783;-67
2023/12/18 05:43:00;;;;;;;17.20;12.40;;;;;;;4.71;100.00;100637.04;87335;267;22713;-65
2023/12/18 05:45:04;;;;;;;16.60;12.50;;;;;;;4.74;100.00;100635.39;87260;270;137369;-69
2023/12/18 05:47:06;;;;;;;16.20;12.50;;;;;;;4.74;100.00;100633.05;87501;274;25097;-71
2023/12/18 05:49:08;;;;;;;15.30;12.10;;;;;;;4.74;100.00;100628.86;87213;266;137061;-70
2023/12/18 05:51:22;;;;;;;15.30;12.50;;;;;;;4.75;100.00;100628.58;87399;278;23998;-71
2023/12/18 05:53:24;;;;;;;14.80;12.30;;;;;;;4.77;100.00;100626.66;87369;271;138839;-70
2023/12/18 05:55:26;;;;;;;15.70;11.50;;;;;;;4.79;100.00;100620.42;87300;278;22571;-70
2023/12/18 05:57:28;;;;;;;13.60;11.40;;;;;;;4.80;100.00;100624.40;87185;267;137537;-70
2023/12/18 05:59:30;;;;;;;14.40;11.10;;;;;;;4.79;100.00;100623.06;87189;267;23906;-69
2023/12/18 06:01:32;;;;;;;14.20;12.70;;;;;;;4.77;100.00;100619.20;87036;271;137024;-71
2023/12/18 06:03:34;;;;;;;16.30;13.20;;;;;;;4.74;100.00;100621.28;87233;271;22900;-70
2023/12/18 06:05:36;;;;;;;16.50;12.80;;;;;;;4.73;100.00;100619.63;87095;271;138585;-70
2023/12/18 06:07:39;;;;;;;16.20;12.50;;;;;;;4.74;100.00;100616.89;90059;267;22507;-69
2023/12/18 06:09:41;;;;;;;14.30;10.90;;;;;;;4.77;100.00;100620.60;90017;267;138101;-72
2023/12/18 06:11:43;;;;;;;14.20;11.30;;;;;;;4.80;100.00;100620.15;88557;271;24217;-70
2023/12/18 06:13:45;;;;;;;13.30;11.10;;;;;;;4.82;100.00;100616.98;87234;274;138422;-71
2023/12/18 06:15:49;;;;;;;15.30;11.10;;;;;;;4.82;100.00;100613.10;87385;267;24049;-72
2023/12/18 06:17:52;;;;;;;13.60;9.50;;;;;;;4.83;100.00;100613.90;87285;271;137252;-71
2023/12/18 06:19:54;;;;;;;13.00;10.10;;;;;;;4.84;100.00;100612.73;87305;274;177665;-72
2023/12/18 06:21:56;;;;;;;14.80;10.90;;;;;;;4.83;100.00;100611.04;87076;278;137361;-72
2023/12/18 06:23:58;;;;;;;16.90;11.20;;;;;;;4.85;100.00;100614.38;87238;273;24001;-72
2023/12/18 06:26:00;;;;;;;15.10;12.20;;;;;;;4.88;100.00;100612.69;87282;271;137261;-71
2023/12/18 06:28:04;;;;;;;16.80;13.20;;;;;;;4.89;100.00;100610.35;87247;271;138669;-70
2023/12/18 06:30:07;;;;;;;16.10;12.30;;;;;;;4.90;100.00;100604.31;87411;278;22711;-71
2023/12/18 06:32:10;;;;;;;11.70;9.60;;;;;;;4.93;100.00;100607.77;87296;266;137578;-70
2023/12/18 06:34:14;;;;;;;12.00;10.30;;;;;;;4.93;100.00;100602.74;87568;271;24021;-71
2023/12/18 06:36:17;;;;;;;12.40;10.30;;;;;;;4.94;100.00;100600.44;87222;270;137569;-73
2023/12/18 06:38:19;;;;;;;13.80;11.30;;;;;;;4.93;100.00;100595.91;87843;270;25243;-71
2023/12/18 06:40:22;;;;;;;12.80;11.50;;;;;;;4.94;100.00;100596.36;87199;274;138761;-73
2023/12/18 06:42:24;;;;;;;14.90;11.50;;;;;;;4.96;100.00;100597.70;87342;271;23997;-72
2023/12/18 06:44:27;;;;;;;15.50;12.70;;;;;;;4.97;100.00;100594.48;87275;271;138037;-73
2023/12/18 06:46:29;;;;;;;15.10;11.70;;;;;;;4.98;100.00;100597.23;87432;278;22580;-74
2023/12/18 06:48:33;;;;;;;12.80;10.80;;;;;;;4.99;100.00;100602.70;87292;271;137433;-73
2023/12/18 06:50:35;;;;;;;15.90;12.60;;;;;;;5.00;100.00;100600.13;87460;271;22565;-71
2023/12/18 06:52:37;;;;;;;17.40;12.40;;;;;;;5.01;100.00;100600.40;87252;278;137212;-73
2023/12/18 06:54:40;;;;;;;16.60;13.50;;;;;;;5.03;100.00;100602.02;87341;276;23084;-75
2023/12/18 06:56:42;;;;;;;16.80;13.90;;;;;;;5.07;100.00;100604.98;87055;267;138485;-74
2023/12/18 06:58:44;;;;;;;20.40;15.70;;;;;;;5.10;100.00;100606.30;87210;271;22583;-71
2023/12/18 07:00:46;;;;;;;30.10;21.40;;;;;;;5.08;100.00;100611.53;87242;267;136554;-74
2023/12/18 07:02:48;;;;;;;41.20;28.50;;;;;;;5.02;100.00;100616.90;87404;271;22655;-73
2023/12/18 07:04:52;;;;;;;53.40;36.80;;;;;;;4.97;100.00;100610.98;87266;278;137615;-70
2023/12/18 07:06:55;;;;;;;65.30;45.60;;;;;;;4.95;100.00;100608.09;87207;273;24188;-73
2023/12/18 07:08:57;;;;;;;67.80;46.40;;;;;;;4.92;100.00;100606.54;87351;271;139107;-72
2023/12/18 07:11:00;;;;;;;62.90;42.60;;;;;;;4.96;100.00;100614.80;87490;271;24049;-74
2023/12/18 07:13:02;;;;;;;55.60;38.70;;;;;;;5.00;100.00;100620.27;87283;274;137834;-71
2023/12/18 07:15:06;;;;;;;43.20;30.10;;;;;;;5.03;100.00;100622.96;87310;274;22562;-70
2023/12/18 07:17:08;;;;;;;22.00;17.40;;;;;;;5.05;100.00;100621.69;87299;271;137632;-73
2023/12/18 07:19:10;;;;;;;24.40;19.90;;;;;;;5.05;100.00;100627.81;87392;267;22559;-73
2023/12/18 07:21:12;;;;;;;25.60;19.40;;;;;;;5.04;100.00;100626.83;87160;270;137211;-73
2023/12/18 07:23:14;;;;;;;23.00;18.50;;;;;;;5.04;100.00;100628.35;87333;271;24727;-74
2023/12/18 07:25:16;;;;;;;20.60;15.50;;;;;;;5.04;100.00;100628.35;87355;267;137476;-75
2023/12/18 07:27:18;;;;;;;24.50;18.20;;;;;;;5.05;100.00;100629.77;87183;280;23930;-75
2023/12/18 07:29:21;;;;;;;23.00;18.10;;;;;;;5.08;100.00;100627.23;87368;271;137589;-73
2023/12/18 07:31:22;;;;;;;26.50;19.70;;;;;;;5.13;100.00;100632.23;87404;274;23744;-71
2023/12/18 07:33:24;;;;;;;28.10;19.60;;;;;;;5.18;100.00;100633.65;87268;271;138752;-71
2023/12/18 07:35:29;;;;;;;36.90;25.90;;;;;;;5.16;100.00;100619.79;87529;271;25248;-71
2023/12/18 07:37:31;;;;;;;40.30;26.00;;;;;;;5.25;100.00;100636.33;87236;271;137449;-74
2023/12/18 07:39:34;;;;;;;34.30;24.30;;;;;;;5.25;100.00;100632.67;87225;271;22571;-71
2023/12/18 07:41:36;;;;;;;31.70;21.50;;;;;;;5.25;100.00;100637.05;87295;267;138487;-73
2023/12/18 07:43:38;;;;;;;24.20;18.90;;;;;;;5.28;100.00;100636.77;87361;271;22561;-70
2023/12/18 07:45:41;;;;;;;22.00;17.40;;;;;;;5.30;100.00;100643.46;87186;278;137222;-75
2023/12/18 07:47:44;;;;;;;24.60;16.90;;;;;;;5.31;100.00;100644.44;87273;267;23995;-72
2023/12/18 07:49:47;;;;;;;20.50;16.00;;;;;;;5.31;100.00;100649.17;87220;267;137492;-70
2023/12/18 07:51:52;;;;;;;21.90;15.90;;;;;;;5.33;100.00;100645.66;87064;272;24026;-73
2023/12/18 07:53:54;;;;;;;23.60;19.00;;;;;;;5.34;100.00;100640.61;87036;268;137516;-70
2023/12/18 07:55:56;;;;;;;26.30;20.30;;;;;;;5.33;100.00;100642.15;87231;266;22583;-73
2023/12/18 07:57:58;;;;;;;25.30;18.80;;;;;;;5.32;100.00;100638.31;87219;271;137336;-71
2023/12/18 08:00:02;;;;;;;23.60;19.60;;;;;;;5.35;100.00;100638.59;87161;272;24044;-72
2023/12/18 08:02:12;;;;;;;23.90;18.40;;;;;;;5.38;100.00;100632.64;87110;271;22643;-70
2023/12/18 08:04:14;;;;;;;23.90;17.60;;;;;;;5.41;100.00;100633.07;87192;267;137816;-74
2023/12/18 08:06:16;;;;;;;23.70;17.80;;;;;;;5.31;100.00;100621.49;87370;271;24001;-73
2023/12/18 08:08:17;;;;;;;27.70;19.60;;;;;;;5.42;100.00;100632.45;87234;271;138029;-76
2023/12/18 08:10:19;;;;;;;23.60;19.40;;;;;;;5.42;100.00;100635.76;87358;269;22847;-73
2023/12/18 08:12:21;;;;;;;28.00;21.00;;;;;;;5.42;100.00;100637.67;87320;271;137340;-72
2023/12/18 08:14:23;;;;;;;27.00;20.80;;;;;;;5.44;100.00;100638.59;87395;278;22831;-73
2023/12/18 08:16:25;;;;;;;23.90;19.10;;;;;;;5.48;100.00;100632.41;87192;274;137131;-69
2023/12/18 08:18:29;;;;;;;25.20;19.90;;;;;;;5.53;100.00;100632.60;87316;277;22581;-75
2023/12/18 08:20:31;;;;;;;24.10;18.80;;;;;;;5.56;100.00;100626.52;87254;271;137178;-73
2023/12/18 08:22:34;;;;;;;21.80;17.10;;;;;;;5.57;100.00;100623.57;87346;274;22642;-73
2023/12/18 08:24:36;;;;;;;22.10;18.50;;;;;;;5.59;100.00;100624.28;87230;266;137419;-70
2023/12/18 08:26:38;;;;;;;23.80;17.90;;;;;;;5.61;100.00;100622.89;87182;274;22558;-72
2023/12/18 08:28:42;;;;;;;24.50;18.60;;;;;;;5.62;100.00;100623.13;87149;267;137373;-71
2023/12/18 08:30:44;;;;;;;25.20;19.20;;;;;;;5.64;100.00;100621.25;87503;271;23939;-71
2023/12/18 08:32:46;;;;;;;25.60;19.70;;;;;;;5.66;100.00;100619.33;87028;278;137214;-72
2023/12/18 08:34:48;;;;;;;29.70;21.70;;;;;;;5.67;100.00;100619.48;87252;271;22574;-70
2023/12/18 08:36:50;;;;;;;33.80;23.60;;;;;;;5.66;100.00;100619.89;87117;271;138679;-73
2023/12/18 08:38:52;;;;;;;30.40;22.10;;;;;;;5.63;100.00;100623.01;87269;274;24011;-72
2023/12/18 08:40:54;;;;;;;28.30;21.00;;;;;;;5.61;100.00;100619.88;87074;274;138658;-70
2023/12/18 08:42:56;;;;;;;28.70;20.30;;;;;;;5.58;100.00;100623.01;87123;278;22800;-72
2023/12/18 08:44:58;;;;;;;29.30;21.60;;;;;;;5.55;100.00;100625.56;87121;267;138469;-71
2023/12/18 08:47:00;;;;;;;25.50;19.20;;;;;;;5.54;100.00;100627.27;87235;278;22652;-70
2023/12/18 08:49:02;;;;;;;25.80;19.60;;;;;;;5.55;100.00;100627.31;87059;278;137399;-72
2023/12/18 08:51:04;;;;;;;31.50;23.10;;;;;;;5.56;100.00;100626.89;87198;271;22602;-71
2023/12/18 08:53:07;;;;;;;30.90;21.40;;;;;;;5.59;100.00;100624.48;87966;267;137164;-72
2023/12/18 08:55:09;;;;;;;27.10;20.50;;;;;;;5.62;100.00;100628.21;87001;272;22562;-71
2023/12/18 08:57:12;;;;;;;30.50;21.80;;;;;;;5.62;100.00;100622.09;87175;271;138767;-73
2023/12/18 08:59:14;;;;;;;31.80;22.30;;;;;;;5.51;100.00;100616.27;87292;271;22562;-71
2023/12/18 09:01:16;;;;;;;30.50;22.50;;;;;;;5.56;100.00;100628.45;87149;275;137678;-72
2023/12/18 09:03:27;;;;;;;27.10;20.40;;;;;;;5.55;100.00;100624.13;87240;278;22626;-72
2023/12/18 09:05:33;;;;;;;33.90;24.00;;;;;;;5.56;100.00;100623.55;87253;278;137420;-72
2023/12/18 09:07:37;;;;;;;29.60;22.20;;;;;;;5.56;100.00;100623.39;87445;271;24030;-72
2023/12/18 09:09:43;;;;;;;27.50;18.90;;;;;;;5.56;100.00;100626.73;87260;278;140723;-72
2023/12/18 09:11:45;;;;;;;29.80;20.90;;;;;;;5.54;100.00;100621.11;87562;278;24456;-73
2023/12/18 09:13:48;;;;;;;29.30;20.70;;;;;;;5.50;100.00;100623.04;87146;274;138822;-73
2023/12/18 09:15:51;;;;;;;30.80;21.90;;;;;;;5.47;100.00;100622.60;87314;274;24264;-72
2023/12/18 09:17:53;;;;;;;32.60;22.60;;;;;;;5.39;100.00;100607.73;87221;271;137044;-70
2023/12/18 09:19:55;;;;;;;31.30;22.60;;;;;;;5.47;100.00;100617.66;87228;263;25238;-73
2023/12/18 09:21:57;;;;;;;29.90;21.60;;;;;;;5.48;100.00;100624.48;87420;266;137249;-73
2023/12/18 09:23:59;;;;;;;33.80;23.80;;;;;;;5.49;100.00;100620.20;87280;271;22571;-72
2023/12/18 09:26:02;;;;;;;32.30;23.20;;;;;;;5.50;100.00;100622.37;87281;266;137940;-71